sensor_id;sensor_type;location;lat;lon;timestamp;P1;durP1;ratioP1;P2;durP2;ratioP2
3249;SDS011;1637;42.020;23.992;2023-03-23T00:00:13;28.50;;;11.37;;
3249;SDS011;1637;42.020;23.992;2023-03-23T00:02:41;11.80;;;5.70;;
3249;SDS011;1637;42.020;23.992;2023-03-23T00:05:08;16.97;;;8.47;;
3249;SDS011;1637;42.020;23.992;2023-03-23T00:07:35;10.50;;;6.03;;
3249;SDS011;1637;42.020;23.992;2023-03-23T00:10:02;21.33;;;8.50;;
3249;SDS011;1637;42.020;23.992;2023-03-23T00:12:31;20.13;;;9.50;;
3249;SDS011;1637;42.020;23.992;2023-03-23T00:14:59;33.90;;;13.20;;
3249;SDS011;1637;42.020;23.992;2023-03-23T00:17:27;31.53;;;9.03;;
3249;SDS011;1637;42.020;23.992;2023-03-23T00:19:54;10.13;;;6.23;;
3249;SDS011;1637;42.020;23.992;2023-03-23T00:22:21;7.97;;;4.73;;
3249;SDS011;1637;42.020;23.992;2023-03-23T00:24:50;6.60;;;4.30;;
3249;SDS011;1637;42.020;23.992;2023-03-23T00:27:17;5.17;;;3.37;;
3249;SDS011;1637;42.020;23.992;2023-03-23T00:29:48;11.43;;;5.57;;
3249;SDS011;1637;42.020;23.992;2023-03-23T00:32:17;7.77;;;4.07;;
3249;SDS011;1637;42.020;23.992;2023-03-23T00:34:45;8.17;;;5.30;;
3249;SDS011;1637;42.020;23.992;2023-03-23T00:37:13;5.73;;;4.37;;
3249;SDS011;1637;42.020;23.992;2023-03-23T00:39:41;13.00;;;7.50;;
3249;SDS011;1637;42.020;23.992;2023-03-23T00:42:10;12.93;;;7.10;;
3249;SDS011;1637;42.020;23.992;2023-03-23T00:44:38;9.43;;;5.80;;
3249;SDS011;1637;42.020;23.992;2023-03-23T00:47:07;7.10;;;5.00;;
3249;SDS011;1637;42.020;23.992;2023-03-23T00:49:35;7.90;;;5.40;;
3249;SDS011;1637;42.020;23.992;2023-03-23T00:52:03;6.40;;;3.53;;
3249;SDS011;1637;42.020;23.992;2023-03-23T00:54:32;6.20;;;4.07;;
3249;SDS011;1637;42.020;23.992;2023-03-23T00:56:59;6.00;;;4.10;;
3249;SDS011;1637;42.020;23.992;2023-03-23T00:59:26;6.97;;;4.20;;
3249;SDS011;1637;42.020;23.992;2023-03-23T01:01:52;10.03;;;5.03;;
3249;SDS011;1637;42.020;23.992;2023-03-23T01:04:21;7.80;;;4.60;;
3249;SDS011;1637;42.020;23.992;2023-03-23T01:06:48;6.33;;;3.20;;
3249;SDS011;1637;42.020;23.992;2023-03-23T01:09:17;7.23;;;4.03;;
3249;SDS011;1637;42.020;23.992;2023-03-23T01:11:46;9.43;;;2.97;;
3249;SDS011;1637;42.020;23.992;2023-03-23T01:14:14;6.20;;;4.77;;
3249;SDS011;1637;42.020;23.992;2023-03-23T01:16:42;5.97;;;4.40;;
3249;SDS011;1637;42.020;23.992;2023-03-23T01:19:09;5.97;;;3.77;;
3249;SDS011;1637;42.020;23.992;2023-03-23T01:21:37;7.17;;;4.17;;
3249;SDS011;1637;42.020;23.992;2023-03-23T01:24:04;6.23;;;4.27;;
3249;SDS011;1637;42.020;23.992;2023-03-23T01:26:32;4.50;;;2.93;;
3249;SDS011;1637;42.020;23.992;2023-03-23T01:28:59;4.47;;;3.77;;
3249;SDS011;1637;42.020;23.992;2023-03-23T01:31:26;7.37;;;3.33;;
3249;SDS011;1637;42.020;23.992;2023-03-23T01:33:53;7.80;;;3.73;;
3249;SDS011;1637;42.020;23.992;2023-03-23T01:36:22;4.70;;;2.93;;
3249;SDS011;1637;42.020;23.992;2023-03-23T01:38:53;5.90;;;3.17;;
3249;SDS011;1637;42.020;23.992;2023-03-23T01:41:20;5.70;;;3.33;;
3249;SDS011;1637;42.020;23.992;2023-03-23T01:43:57;6.20;;;3.73;;
3249;SDS011;1637;42.020;23.992;2023-03-23T01:46:29;6.20;;;3.93;;
3249;SDS011;1637;42.020;23.992;2023-03-23T01:48:57;7.53;;;3.97;;
3249;SDS011;1637;42.020;23.992;2023-03-23T01:51:26;3.80;;;2.63;;
3249;SDS011;1637;42.020;23.992;2023-03-23T01:53:55;4.77;;;3.13;;
3249;SDS011;1637;42.020;23.992;2023-03-23T01:56:25;9.63;;;4.70;;
3249;SDS011;1637;42.020;23.992;2023-03-23T01:58:58;8.77;;;4.90;;
3249;SDS011;1637;42.020;23.992;2023-03-23T02:01:25;10.43;;;5.73;;
3249;SDS011;1637;42.020;23.992;2023-03-23T02:03:54;4.50;;;3.50;;
3249;SDS011;1637;42.020;23.992;2023-03-23T02:06:23;5.60;;;3.63;;
3249;SDS011;1637;42.020;23.992;2023-03-23T02:08:50;18.30;;;5.93;;
3249;SDS011;1637;42.020;23.992;2023-03-23T02:11:20;17.73;;;7.90;;
3249;SDS011;1637;42.020;23.992;2023-03-23T02:13:48;15.70;;;6.83;;
3249;SDS011;1637;42.020;23.992;2023-03-23T02:16:19;15.10;;;6.90;;
3249;SDS011;1637;42.020;23.992;2023-03-23T02:18:55;22.80;;;10.23;;
3249;SDS011;1637;42.020;23.992;2023-03-23T02:21:38;16.10;;;6.50;;
3249;SDS011;1637;42.020;23.992;2023-03-23T02:27:29;7.23;;;3.30;;
3249;SDS011;1637;42.020;23.992;2023-03-23T02:30:31;6.60;;;3.13;;
3249;SDS011;1637;42.020;23.992;2023-03-23T02:33:11;4.40;;;2.93;;
3249;SDS011;1637;42.020;23.992;2023-03-23T02:35:49;7.70;;;3.70;;
3249;SDS011;1637;42.020;23.992;2023-03-23T02:38:21;6.60;;;4.30;;
3249;SDS011;1637;42.020;23.992;2023-03-23T02:40:53;7.40;;;3.93;;
3249;SDS011;1637;42.020;23.992;2023-03-23T02:43:23;7.30;;;4.03;;
3249;SDS011;1637;42.020;23.992;2023-03-23T02:45:53;7.50;;;4.30;;
3249;SDS011;1637;42.020;23.992;2023-03-23T02:48:24;5.53;;;3.70;;
3249;SDS011;1637;42.020;23.992;2023-03-23T02:50:55;6.73;;;4.30;;
3249;SDS011;1637;42.020;23.992;2023-03-23T02:53:24;5.07;;;3.43;;
3249;SDS011;1637;42.020;23.992;2023-03-23T02:55:52;6.33;;;3.90;;
3249;SDS011;1637;42.020;23.992;2023-03-23T02:58:22;5.43;;;3.70;;
3249;SDS011;1637;42.020;23.992;2023-03-23T03:00:50;6.37;;;4.23;;
3249;SDS011;1637;42.020;23.992;2023-03-23T03:03:17;8.60;;;4.70;;
3249;SDS011;1637;42.020;23.992;2023-03-23T03:05:52;4.40;;;3.03;;
3249;SDS011;1637;42.020;23.992;2023-03-23T03:08:26;5.57;;;3.40;;
3249;SDS011;1637;42.020;23.992;2023-03-23T03:11:02;5.40;;;3.90;;
3249;SDS011;1637;42.020;23.992;2023-03-23T03:13:35;7.50;;;3.93;;
3249;SDS011;1637;42.020;23.992;2023-03-23T03:16:12;6.77;;;3.17;;
3249;SDS011;1637;42.020;23.992;2023-03-23T03:18:46;12.10;;;4.40;;
3249;SDS011;1637;42.020;23.992;2023-03-23T03:21:18;11.80;;;5.03;;
3249;SDS011;1637;42.020;23.992;2023-03-23T03:23:50;5.17;;;3.20;;
3249;SDS011;1637;42.020;23.992;2023-03-23T03:26:23;5.83;;;3.53;;
3249;SDS011;1637;42.020;23.992;2023-03-23T03:28:53;6.77;;;3.47;;
3249;SDS011;1637;42.020;23.992;2023-03-23T03:31:22;4.93;;;3.30;;
3249;SDS011;1637;42.020;23.992;2023-03-23T03:33:52;5.20;;;3.37;;
3249;SDS011;1637;42.020;23.992;2023-03-23T03:36:21;8.90;;;4.47;;
3249;SDS011;1637;42.020;23.992;2023-03-23T03:38:52;6.80;;;3.37;;
3249;SDS011;1637;42.020;23.992;2023-03-23T03:41:19;13.67;;;6.57;;
3249;SDS011;1637;42.020;23.992;2023-03-23T03:43:46;9.97;;;5.33;;
3249;SDS011;1637;42.020;23.992;2023-03-23T03:46:13;7.03;;;3.53;;
3249;SDS011;1637;42.020;23.992;2023-03-23T03:48:39;7.70;;;3.90;;
3249;SDS011;1637;42.020;23.992;2023-03-23T03:51:06;4.80;;;2.83;;
3249;SDS011;1637;42.020;23.992;2023-03-23T03:53:35;5.77;;;3.90;;
3249;SDS011;1637;42.020;23.992;2023-03-23T03:56:02;6.17;;;4.27;;
3249;SDS011;1637;42.020;23.992;2023-03-23T03:58:30;7.00;;;4.20;;
3249;SDS011;1637;42.020;23.992;2023-03-23T04:00:58;5.80;;;4.10;;
3249;SDS011;1637;42.020;23.992;2023-03-23T04:03:25;6.47;;;4.50;;
3249;SDS011;1637;42.020;23.992;2023-03-23T04:05:52;7.87;;;4.97;;
3249;SDS011;1637;42.020;23.992;2023-03-23T04:08:21;7.00;;;5.13;;
3249;SDS011;1637;42.020;23.992;2023-03-23T04:10:49;7.13;;;3.77;;
3249;SDS011;1637;42.020;23.992;2023-03-23T04:13:17;12.93;;;5.57;;
3249;SDS011;1637;42.020;23.992;2023-03-23T04:15:44;28.73;;;12.37;;
3249;SDS011;1637;42.020;23.992;2023-03-23T04:18:12;9.37;;;4.60;;
3249;SDS011;1637;42.020;23.992;2023-03-23T04:20:41;6.73;;;4.60;;
3249;SDS011;1637;42.020;23.992;2023-03-23T04:23:09;12.20;;;5.70;;
3249;SDS011;1637;42.020;23.992;2023-03-23T04:25:36;7.47;;;4.37;;
3249;SDS011;1637;42.020;23.992;2023-03-23T04:28:06;8.47;;;5.30;;
3249;SDS011;1637;42.020;23.992;2023-03-23T04:30:35;6.20;;;4.07;;
3249;SDS011;1637;42.020;23.992;2023-03-23T04:33:02;13.90;;;6.20;;
3249;SDS011;1637;42.020;23.992;2023-03-23T04:35:30;7.20;;;4.30;;
3249;SDS011;1637;42.020;23.992;2023-03-23T04:37:57;8.70;;;4.63;;
3249;SDS011;1637;42.020;23.992;2023-03-23T04:40:24;4.80;;;3.30;;
3249;SDS011;1637;42.020;23.992;2023-03-23T04:42:51;7.80;;;5.00;;
3249;SDS011;1637;42.020;23.992;2023-03-23T04:45:24;8.07;;;5.27;;
3249;SDS011;1637;42.020;23.992;2023-03-23T04:47:51;9.17;;;5.80;;
3249;SDS011;1637;42.020;23.992;2023-03-23T04:50:23;8.33;;;4.37;;
3249;SDS011;1637;42.020;23.992;2023-03-23T04:52:52;6.00;;;3.23;;
3249;SDS011;1637;42.020;23.992;2023-03-23T04:55:21;7.30;;;3.80;;
3249;SDS011;1637;42.020;23.992;2023-03-23T04:57:48;13.27;;;5.70;;
3249;SDS011;1637;42.020;23.992;2023-03-23T05:00:15;7.57;;;4.93;;
3249;SDS011;1637;42.020;23.992;2023-03-23T05:02:45;17.33;;;6.60;;
3249;SDS011;1637;42.020;23.992;2023-03-23T05:05:16;28.50;;;10.83;;
3249;SDS011;1637;42.020;23.992;2023-03-23T05:07:44;58.60;;;25.90;;
3249;SDS011;1637;42.020;23.992;2023-03-23T05:10:12;61.17;;;24.20;;
3249;SDS011;1637;42.020;23.992;2023-03-23T05:12:40;38.33;;;20.27;;
3249;SDS011;1637;42.020;23.992;2023-03-23T05:15:08;44.30;;;23.43;;
3249;SDS011;1637;42.020;23.992;2023-03-23T05:17:36;45.93;;;21.73;;
3249;SDS011;1637;42.020;23.992;2023-03-23T05:20:05;37.07;;;18.57;;
3249;SDS011;1637;42.020;23.992;2023-03-23T05:22:34;37.13;;;20.90;;
3249;SDS011;1637;42.020;23.992;2023-03-23T05:25:02;49.90;;;25.13;;
3249;SDS011;1637;42.020;23.992;2023-03-23T05:27:30;41.27;;;23.93;;
3249;SDS011;1637;42.020;23.992;2023-03-23T05:29:57;40.03;;;19.70;;
3249;SDS011;1637;42.020;23.992;2023-03-23T05:32:25;71.37;;;33.93;;
3249;SDS011;1637;42.020;23.992;2023-03-23T05:34:56;70.60;;;33.07;;
3249;SDS011;1637;42.020;23.992;2023-03-23T05:37:24;67.17;;;29.47;;
3249;SDS011;1637;42.020;23.992;2023-03-23T05:39:53;98.10;;;41.97;;
3249;SDS011;1637;42.020;23.992;2023-03-23T05:42:20;78.93;;;38.17;;
3249;SDS011;1637;42.020;23.992;2023-03-23T05:44:47;149.00;;;52.80;;
3249;SDS011;1637;42.020;23.992;2023-03-23T05:47:15;57.00;;;28.23;;
3249;SDS011;1637;42.020;23.992;2023-03-23T05:49:42;33.07;;;10.80;;
3249;SDS011;1637;42.020;23.992;2023-03-23T05:52:09;9.70;;;5.63;;
3249;SDS011;1637;42.020;23.992;2023-03-23T05:54:37;73.67;;;20.43;;
3249;SDS011;1637;42.020;23.992;2023-03-23T05:57:04;71.47;;;31.17;;
3249;SDS011;1637;42.020;23.992;2023-03-23T05:59:31;35.70;;;15.23;;
3249;SDS011;1637;42.020;23.992;2023-03-23T06:01:59;40.53;;;16.57;;
3249;SDS011;1637;42.020;23.992;2023-03-23T06:04:26;79.97;;;31.37;;
3249;SDS011;1637;42.020;23.992;2023-03-23T06:06:52;82.63;;;35.87;;
3249;SDS011;1637;42.020;23.992;2023-03-23T06:09:19;94.77;;;44.80;;
3249;SDS011;1637;42.020;23.992;2023-03-23T06:11:50;89.40;;;39.73;;
3249;SDS011;1637;42.020;23.992;2023-03-23T06:14:16;66.03;;;31.00;;
3249;SDS011;1637;42.020;23.992;2023-03-23T06:16:44;34.70;;;18.53;;
3249;SDS011;1637;42.020;23.992;2023-03-23T06:19:10;48.63;;;26.20;;
3249;SDS011;1637;42.020;23.992;2023-03-23T06:21:37;77.20;;;34.83;;
3249;SDS011;1637;42.020;23.992;2023-03-23T06:24:05;47.00;;;20.37;;
3249;SDS011;1637;42.020;23.992;2023-03-23T06:26:32;32.33;;;14.37;;
3249;SDS011;1637;42.020;23.992;2023-03-23T06:29:03;25.30;;;12.87;;
3249;SDS011;1637;42.020;23.992;2023-03-23T06:31:36;19.80;;;11.20;;
3249;SDS011;1637;42.020;23.992;2023-03-23T06:34:05;10.90;;;5.50;;
3249;SDS011;1637;42.020;23.992;2023-03-23T06:36:32;16.80;;;9.00;;
3249;SDS011;1637;42.020;23.992;2023-03-23T06:38:58;32.90;;;15.50;;
3249;SDS011;1637;42.020;23.992;2023-03-23T06:41:26;24.17;;;14.80;;
3249;SDS011;1637;42.020;23.992;2023-03-23T06:43:53;17.10;;;9.93;;
3249;SDS011;1637;42.020;23.992;2023-03-23T06:46:21;30.73;;;17.70;;
3249;SDS011;1637;42.020;23.992;2023-03-23T06:48:48;27.37;;;15.40;;
3249;SDS011;1637;42.020;23.992;2023-03-23T06:51:15;27.63;;;16.07;;
3249;SDS011;1637;42.020;23.992;2023-03-23T06:53:42;27.23;;;16.90;;
3249;SDS011;1637;42.020;23.992;2023-03-23T06:56:09;71.30;;;29.50;;
3249;SDS011;1637;42.020;23.992;2023-03-23T06:58:38;29.40;;;14.37;;
3249;SDS011;1637;42.020;23.992;2023-03-23T07:01:06;67.33;;;55.70;;
3249;SDS011;1637;42.020;23.992;2023-03-23T07:03:35;23.10;;;11.30;;
3249;SDS011;1637;42.020;23.992;2023-03-23T07:06:03;39.00;;;23.60;;
3249;SDS011;1637;42.020;23.992;2023-03-23T07:08:30;10.87;;;6.73;;
3249;SDS011;1637;42.020;23.992;2023-03-23T07:10:57;18.43;;;10.13;;
3249;SDS011;1637;42.020;23.992;2023-03-23T07:13:24;20.63;;;12.13;;
3249;SDS011;1637;42.020;23.992;2023-03-23T07:15:52;17.93;;;9.97;;
3249;SDS011;1637;42.020;23.992;2023-03-23T07:18:20;20.07;;;8.90;;
3249;SDS011;1637;42.020;23.992;2023-03-23T07:20:49;14.30;;;8.33;;
3249;SDS011;1637;42.020;23.992;2023-03-23T07:23:16;24.93;;;10.47;;
3249;SDS011;1637;42.020;23.992;2023-03-23T07:25:44;30.10;;;11.40;;
3249;SDS011;1637;42.020;23.992;2023-03-23T07:28:13;20.23;;;10.43;;
3249;SDS011;1637;42.020;23.992;2023-03-23T07:30:40;22.33;;;12.20;;
3249;SDS011;1637;42.020;23.992;2023-03-23T07:33:08;40.33;;;12.60;;
3249;SDS011;1637;42.020;23.992;2023-03-23T07:35:35;13.70;;;9.83;;
3249;SDS011;1637;42.020;23.992;2023-03-23T07:38:04;22.97;;;11.30;;
3249;SDS011;1637;42.020;23.992;2023-03-23T07:40:32;28.87;;;11.40;;
3249;SDS011;1637;42.020;23.992;2023-03-23T07:42:59;18.27;;;10.43;;
3249;SDS011;1637;42.020;23.992;2023-03-23T07:45:28;16.70;;;11.03;;
3249;SDS011;1637;42.020;23.992;2023-03-23T07:47:56;33.87;;;15.77;;
3249;SDS011;1637;42.020;23.992;2023-03-23T07:50:22;14.60;;;11.90;;
3249;SDS011;1637;42.020;23.992;2023-03-23T07:52:50;12.33;;;8.30;;
3249;SDS011;1637;42.020;23.992;2023-03-23T07:55:20;32.83;;;19.23;;
3249;SDS011;1637;42.020;23.992;2023-03-23T07:57:50;12.80;;;9.00;;
3249;SDS011;1637;42.020;23.992;2023-03-23T08:00:17;18.73;;;8.50;;
3249;SDS011;1637;42.020;23.992;2023-03-23T08:02:46;19.50;;;11.40;;
3249;SDS011;1637;42.020;23.992;2023-03-23T08:05:13;23.57;;;15.17;;
3249;SDS011;1637;42.020;23.992;2023-03-23T08:07:41;20.83;;;9.13;;
3249;SDS011;1637;42.020;23.992;2023-03-23T08:10:10;28.70;;;10.10;;
3249;SDS011;1637;42.020;23.992;2023-03-23T08:12:40;17.03;;;10.60;;
3249;SDS011;1637;42.020;23.992;2023-03-23T08:15:08;10.20;;;7.67;;
3249;SDS011;1637;42.020;23.992;2023-03-23T08:17:39;8.97;;;6.67;;
3249;SDS011;1637;42.020;23.992;2023-03-23T08:20:08;13.30;;;8.20;;
3249;SDS011;1637;42.020;23.992;2023-03-23T08:22:38;13.33;;;7.90;;
3249;SDS011;1637;42.020;23.992;2023-03-23T08:25:07;29.97;;;15.67;;
3249;SDS011;1637;42.020;23.992;2023-03-23T08:27:36;12.33;;;8.13;;
3249;SDS011;1637;42.020;23.992;2023-03-23T08:30:04;11.17;;;8.90;;
3249;SDS011;1637;42.020;23.992;2023-03-23T08:32:33;7.77;;;5.80;;
3249;SDS011;1637;42.020;23.992;2023-03-23T08:35:00;22.47;;;14.10;;
3249;SDS011;1637;42.020;23.992;2023-03-23T08:37:27;13.70;;;7.70;;
3249;SDS011;1637;42.020;23.992;2023-03-23T08:39:55;15.10;;;11.13;;
3249;SDS011;1637;42.020;23.992;2023-03-23T08:42:23;8.37;;;5.50;;
3249;SDS011;1637;42.020;23.992;2023-03-23T08:44:50;8.80;;;5.97;;
3249;SDS011;1637;42.020;23.992;2023-03-23T08:47:19;17.40;;;8.67;;
3249;SDS011;1637;42.020;23.992;2023-03-23T08:49:46;8.80;;;6.00;;
3249;SDS011;1637;42.020;23.992;2023-03-23T08:52:17;5.03;;;3.73;;
3249;SDS011;1637;42.020;23.992;2023-03-23T08:54:44;11.40;;;8.67;;
3249;SDS011;1637;42.020;23.992;2023-03-23T08:57:12;18.23;;;11.00;;
3249;SDS011;1637;42.020;23.992;2023-03-23T08:59:41;9.90;;;4.73;;
3249;SDS011;1637;42.020;23.992;2023-03-23T09:02:08;16.10;;;10.33;;
3249;SDS011;1637;42.020;23.992;2023-03-23T09:04:38;11.33;;;9.60;;
3249;SDS011;1637;42.020;23.992;2023-03-23T09:07:07;7.13;;;5.70;;
3249;SDS011;1637;42.020;23.992;2023-03-23T09:09:36;11.43;;;6.20;;
3249;SDS011;1637;42.020;23.992;2023-03-23T09:12:04;18.93;;;10.10;;
3249;SDS011;1637;42.020;23.992;2023-03-23T09:14:31;15.97;;;6.13;;
3249;SDS011;1637;42.020;23.992;2023-03-23T09:16:58;6.60;;;5.80;;
3249;SDS011;1637;42.020;23.992;2023-03-23T09:19:25;11.40;;;7.43;;
3249;SDS011;1637;42.020;23.992;2023-03-23T09:21:54;7.50;;;4.90;;
3249;SDS011;1637;42.020;23.992;2023-03-23T09:24:21;5.93;;;4.27;;
3249;SDS011;1637;42.020;23.992;2023-03-23T09:26:48;8.77;;;7.70;;
3249;SDS011;1637;42.020;23.992;2023-03-23T09:29:15;10.93;;;5.63;;
3249;SDS011;1637;42.020;23.992;2023-03-23T09:31:43;8.10;;;5.90;;
3249;SDS011;1637;42.020;23.992;2023-03-23T09:34:11;14.00;;;6.60;;
3249;SDS011;1637;42.020;23.992;2023-03-23T09:36:40;9.13;;;5.37;;
3249;SDS011;1637;42.020;23.992;2023-03-23T09:39:09;18.53;;;16.83;;
3249;SDS011;1637;42.020;23.992;2023-03-23T09:41:41;10.80;;;5.83;;
3249;SDS011;1637;42.020;23.992;2023-03-23T09:44:21;6.07;;;5.23;;
3249;SDS011;1637;42.020;23.992;2023-03-23T09:46:57;6.27;;;4.33;;
3249;SDS011;1637;42.020;23.992;2023-03-23T09:49:30;7.40;;;4.83;;
3249;SDS011;1637;42.020;23.992;2023-03-23T09:52:01;8.03;;;5.57;;
3249;SDS011;1637;42.020;23.992;2023-03-23T09:54:33;2.47;;;1.80;;
3249;SDS011;1637;42.020;23.992;2023-03-23T09:57:03;10.20;;;7.87;;
3249;SDS011;1637;42.020;23.992;2023-03-23T09:59:34;6.27;;;5.53;;
3249;SDS011;1637;42.020;23.992;2023-03-23T10:02:10;14.33;;;7.37;;
3249;SDS011;1637;42.020;23.992;2023-03-23T10:04:47;10.37;;;7.20;;
3249;SDS011;1637;42.020;23.992;2023-03-23T10:07:18;7.03;;;4.73;;
3249;SDS011;1637;42.020;23.992;2023-03-23T10:09:48;10.13;;;6.43;;
3249;SDS011;1637;42.020;23.992;2023-03-23T10:12:24;19.00;;;9.80;;
3249;SDS011;1637;42.020;23.992;2023-03-23T10:15:09;12.30;;;4.97;;
3249;SDS011;1637;42.020;23.992;2023-03-23T10:17:42;2.97;;;2.73;;
3249;SDS011;1637;42.020;23.992;2023-03-23T10:20:25;13.93;;;7.87;;
3249;SDS011;1637;42.020;23.992;2023-03-23T10:23:02;15.03;;;5.47;;
3249;SDS011;1637;42.020;23.992;2023-03-23T10:25:55;7.67;;;4.97;;
3249;SDS011;1637;42.020;23.992;2023-03-23T10:28:34;10.73;;;4.30;;
3249;SDS011;1637;42.020;23.992;2023-03-23T10:31:03;8.93;;;5.20;;
3249;SDS011;1637;42.020;23.992;2023-03-23T10:33:33;8.57;;;5.47;;
3249;SDS011;1637;42.020;23.992;2023-03-23T10:36:04;16.33;;;7.43;;
3249;SDS011;1637;42.020;23.992;2023-03-23T10:38:37;14.90;;;8.70;;
3249;SDS011;1637;42.020;23.992;2023-03-23T10:41:09;27.37;;;12.60;;
3249;SDS011;1637;42.020;23.992;2023-03-23T10:43:37;20.73;;;12.27;;
3249;SDS011;1637;42.020;23.992;2023-03-23T10:46:05;18.70;;;9.00;;
3249;SDS011;1637;42.020;23.992;2023-03-23T10:48:43;18.40;;;10.67;;
3249;SDS011;1637;42.020;23.992;2023-03-23T10:51:13;20.60;;;11.93;;
3249;SDS011;1637;42.020;23.992;2023-03-23T10:53:46;10.03;;;4.37;;
3249;SDS011;1637;42.020;23.992;2023-03-23T10:56:23;4.40;;;2.97;;
3249;SDS011;1637;42.020;23.992;2023-03-23T10:58:52;5.93;;;3.97;;
3249;SDS011;1637;42.020;23.992;2023-03-23T11:01:20;8.73;;;4.17;;
3249;SDS011;1637;42.020;23.992;2023-03-23T11:03:56;7.33;;;4.07;;
3249;SDS011;1637;42.020;23.992;2023-03-23T11:06:26;9.80;;;5.30;;
3249;SDS011;1637;42.020;23.992;2023-03-23T11:08:55;5.70;;;4.67;;
3249;SDS011;1637;42.020;23.992;2023-03-23T11:11:26;4.10;;;3.73;;
3249;SDS011;1637;42.020;23.992;2023-03-23T11:13:59;39.47;;;20.53;;
3249;SDS011;1637;42.020;23.992;2023-03-23T11:16:28;7.17;;;4.30;;
3249;SDS011;1637;42.020;23.992;2023-03-23T11:18:57;11.43;;;6.30;;
3249;SDS011;1637;42.020;23.992;2023-03-23T11:21:25;9.10;;;5.07;;
3249;SDS011;1637;42.020;23.992;2023-03-23T11:23:53;7.87;;;4.90;;
3249;SDS011;1637;42.020;23.992;2023-03-23T11:26:24;10.20;;;6.20;;
3249;SDS011;1637;42.020;23.992;2023-03-23T11:28:56;5.83;;;4.37;;
3249;SDS011;1637;42.020;23.992;2023-03-23T11:31:27;3.77;;;3.47;;
3249;SDS011;1637;42.020;23.992;2023-03-23T11:33:57;6.30;;;2.70;;
3249;SDS011;1637;42.020;23.992;2023-03-23T11:36:30;5.13;;;3.50;;
3249;SDS011;1637;42.020;23.992;2023-03-23T11:38:59;14.47;;;4.83;;
3249;SDS011;1637;42.020;23.992;2023-03-23T11:41:33;8.17;;;3.50;;
3249;SDS011;1637;42.020;23.992;2023-03-23T11:44:08;5.33;;;3.40;;
3249;SDS011;1637;42.020;23.992;2023-03-23T11:46:39;7.67;;;3.23;;
3249;SDS011;1637;42.020;23.992;2023-03-23T11:49:16;6.63;;;4.73;;
3249;SDS011;1637;42.020;23.992;2023-03-23T11:51:50;7.23;;;5.13;;
3249;SDS011;1637;42.020;23.992;2023-03-23T11:54:22;8.30;;;5.07;;
3249;SDS011;1637;42.020;23.992;2023-03-23T11:56:56;8.40;;;3.70;;
3249;SDS011;1637;42.020;23.992;2023-03-23T11:59:26;7.73;;;5.20;;
3249;SDS011;1637;42.020;23.992;2023-03-23T12:01:56;3.50;;;3.20;;
3249;SDS011;1637;42.020;23.992;2023-03-23T12:04:40;5.30;;;4.50;;
3249;SDS011;1637;42.020;23.992;2023-03-23T12:07:24;4.50;;;3.60;;
3249;SDS011;1637;42.020;23.992;2023-03-23T12:10:24;11.77;;;7.43;;
3249;SDS011;1637;42.020;23.992;2023-03-23T12:12:59;7.93;;;4.17;;
3249;SDS011;1637;42.020;23.992;2023-03-23T12:15:38;6.03;;;3.57;;
3249;SDS011;1637;42.020;23.992;2023-03-23T12:18:16;7.33;;;4.00;;
3249;SDS011;1637;42.020;23.992;2023-03-23T12:20:53;10.83;;;3.53;;
3249;SDS011;1637;42.020;23.992;2023-03-23T12:23:32;3.47;;;3.17;;
3249;SDS011;1637;42.020;23.992;2023-03-23T12:29:07;5.53;;;3.87;;
3249;SDS011;1637;42.020;23.992;2023-03-23T12:31:46;7.07;;;5.03;;
3249;SDS011;1637;42.020;23.992;2023-03-23T12:34:25;10.47;;;7.77;;
3249;SDS011;1637;42.020;23.992;2023-03-23T12:37:04;4.90;;;4.10;;
3249;SDS011;1637;42.020;23.992;2023-03-23T12:39:51;13.70;;;9.03;;
3249;SDS011;1637;42.020;23.992;2023-03-23T12:42:33;4.23;;;3.77;;
3249;SDS011;1637;42.020;23.992;2023-03-23T12:45:16;3.93;;;2.47;;
3249;SDS011;1637;42.020;23.992;2023-03-23T12:47:49;15.20;;;8.17;;
3249;SDS011;1637;42.020;23.992;2023-03-23T12:50:24;5.60;;;3.63;;
3249;SDS011;1637;42.020;23.992;2023-03-23T12:52:56;8.40;;;3.50;;
3249;SDS011;1637;42.020;23.992;2023-03-23T12:55:30;3.53;;;3.07;;
3249;SDS011;1637;42.020;23.992;2023-03-23T12:58:04;3.47;;;3.17;;
3249;SDS011;1637;42.020;23.992;2023-03-23T13:00:50;6.27;;;3.90;;
3249;SDS011;1637;42.020;23.992;2023-03-23T13:03:23;11.10;;;3.53;;
3249;SDS011;1637;42.020;23.992;2023-03-23T13:05:58;4.80;;;3.40;;
3249;SDS011;1637;42.020;23.992;2023-03-23T13:08:31;10.03;;;5.60;;
3249;SDS011;1637;42.020;23.992;2023-03-23T13:11:03;18.20;;;3.97;;
3249;SDS011;1637;42.020;23.992;2023-03-23T13:13:41;7.70;;;4.00;;
3249;SDS011;1637;42.020;23.992;2023-03-23T13:16:14;6.70;;;5.10;;
3249;SDS011;1637;42.020;23.992;2023-03-23T13:18:48;5.77;;;3.90;;
3249;SDS011;1637;42.020;23.992;2023-03-23T13:21:24;7.33;;;4.00;;
3249;SDS011;1637;42.020;23.992;2023-03-23T13:23:55;9.03;;;4.10;;
3249;SDS011;1637;42.020;23.992;2023-03-23T13:26:24;5.73;;;3.10;;
3249;SDS011;1637;42.020;23.992;2023-03-23T13:28:55;5.63;;;3.87;;
3249;SDS011;1637;42.020;23.992;2023-03-23T13:31:25;6.03;;;4.20;;
3249;SDS011;1637;42.020;23.992;2023-03-23T13:33:59;4.87;;;3.70;;
3249;SDS011;1637;42.020;23.992;2023-03-23T13:36:29;7.00;;;3.17;;
3249;SDS011;1637;42.020;23.992;2023-03-23T13:38:58;6.77;;;4.20;;
3249;SDS011;1637;42.020;23.992;2023-03-23T13:41:27;8.97;;;4.97;;
3249;SDS011;1637;42.020;23.992;2023-03-23T13:44:05;9.30;;;5.30;;
3249;SDS011;1637;42.020;23.992;2023-03-23T13:46:53;9.90;;;5.20;;
3249;SDS011;1637;42.020;23.992;2023-03-23T13:49:21;5.03;;;3.70;;
3249;SDS011;1637;42.020;23.992;2023-03-23T13:52:01;5.63;;;3.60;;
3249;SDS011;1637;42.020;23.992;2023-03-23T13:54:43;8.30;;;5.93;;
3249;SDS011;1637;42.020;23.992;2023-03-23T13:57:23;8.30;;;5.60;;
3249;SDS011;1637;42.020;23.992;2023-03-23T13:59:55;13.83;;;5.43;;
3249;SDS011;1637;42.020;23.992;2023-03-23T14:02:30;8.23;;;5.90;;
3249;SDS011;1637;42.020;23.992;2023-03-23T14:05:09;9.53;;;5.37;;
3249;SDS011;1637;42.020;23.992;2023-03-23T14:07:54;6.23;;;3.90;;
3249;SDS011;1637;42.020;23.992;2023-03-23T14:10:25;16.53;;;7.47;;
3249;SDS011;1637;42.020;23.992;2023-03-23T14:12:57;20.60;;;10.63;;
3249;SDS011;1637;42.020;23.992;2023-03-23T14:15:28;20.00;;;7.70;;
3249;SDS011;1637;42.020;23.992;2023-03-23T14:17:57;14.03;;;9.20;;
3249;SDS011;1637;42.020;23.992;2023-03-23T14:20:30;10.20;;;5.60;;
3249;SDS011;1637;42.020;23.992;2023-03-23T14:22:59;28.63;;;12.27;;
3249;SDS011;1637;42.020;23.992;2023-03-23T14:25:27;12.70;;;9.33;;
3249;SDS011;1637;42.020;23.992;2023-03-23T14:27:56;14.67;;;10.10;;
3249;SDS011;1637;42.020;23.992;2023-03-23T14:30:24;21.10;;;13.30;;
3249;SDS011;1637;42.020;23.992;2023-03-23T14:32:52;7.07;;;5.17;;
3249;SDS011;1637;42.020;23.992;2023-03-23T14:35:23;41.20;;;15.83;;
3249;SDS011;1637;42.020;23.992;2023-03-23T14:37:52;15.50;;;11.10;;
3249;SDS011;1637;42.020;23.992;2023-03-23T14:40:19;28.47;;;20.90;;
3249;SDS011;1637;42.020;23.992;2023-03-23T14:42:46;14.23;;;7.93;;
3249;SDS011;1637;42.020;23.992;2023-03-23T14:45:14;22.10;;;11.03;;
3249;SDS011;1637;42.020;23.992;2023-03-23T14:47:43;16.83;;;8.97;;
3249;SDS011;1637;42.020;23.992;2023-03-23T14:50:23;13.20;;;8.40;;
3249;SDS011;1637;42.020;23.992;2023-03-23T14:52:55;12.83;;;6.10;;
3249;SDS011;1637;42.020;23.992;2023-03-23T14:55:30;20.00;;;12.63;;
3249;SDS011;1637;42.020;23.992;2023-03-23T14:58:05;12.73;;;7.50;;
3249;SDS011;1637;42.020;23.992;2023-03-23T15:00:34;13.60;;;9.93;;
3249;SDS011;1637;42.020;23.992;2023-03-23T15:03:05;12.17;;;7.10;;
3249;SDS011;1637;42.020;23.992;2023-03-23T15:05:40;15.37;;;6.27;;
3249;SDS011;1637;42.020;23.992;2023-03-23T15:08:11;9.87;;;5.97;;
3249;SDS011;1637;42.020;23.992;2023-03-23T15:10:41;10.77;;;6.23;;
3249;SDS011;1637;42.020;23.992;2023-03-23T15:13:10;9.93;;;5.07;;
3249;SDS011;1637;42.020;23.992;2023-03-23T15:15:38;9.07;;;5.37;;